Time;durP1;ratioP1;P1;durP2;ratioP2;P2;SDS_P1;SDS_P2;PMS_P1;PMS_P2;Temp;Humidity;BMP_temperature;BMP_pressure;BME280_temperature;BME280_humidity;BME280_pressure;Samples;Min_cycle;Max_cycle;Signal;HPM_P1;HPM_P2
2023/04/13 00:00:49;;;;;;;8.55;5.50;;;;;;;11.63;44.32;98113.19;4344551;32;32642;-82
2023/04/13 00:03:17;;;;;;;10.30;5.65;;;;;;;11.74;44.73;98116.53;4359513;32;33899;-81
2023/04/13 00:05:47;;;;;;;11.25;5.45;;;;;;;11.51;45.02;98118.47;4360581;32;33923;-83
2023/04/13 00:08:15;;;;;;;10.15;5.12;;;;;;;11.60;44.95;98105.44;4347321;32;33552;-84
2023/04/13 00:10:44;;;;;;;10.38;5.45;;;;;;;11.68;44.27;98099.28;4357800;32;32984;-83
2023/04/13 00:13:14;;;;;;;10.55;5.53;;;;;;;11.62;44.96;98101.94;4333882;32;34003;-84
2023/04/13 00:15:42;;;;;;;13.07;5.62;;;;;;;11.75;44.54;98091.47;4356413;32;33989;-82
2023/04/13 00:18:11;;;;;;;9.65;5.25;;;;;;;11.77;44.52;98100.94;4359264;32;34082;-83
2023/04/13 00:20:40;;;;;;;9.70;5.50;;;;;;;11.68;44.80;98088.06;4358985;32;33477;-85
2023/04/13 00:23:08;;;;;;;9.65;5.25;;;;;;;11.83;44.88;98089.66;4357438;32;33793;-83
2023/04/13 00:25:36;;;;;;;12.37;5.40;;;;;;;11.74;45.35;98100.09;4351450;32;34192;-84
2023/04/13 00:28:05;;;;;;;9.02;5.32;;;;;;;11.73;45.18;98095.78;4348720;32;34701;-83
2023/04/13 00:30:32;;;;;;;13.40;6.12;;;;;;;11.72;45.23;98094.09;4353405;32;33594;-83
2023/04/13 00:33:03;;;;;;;10.73;5.60;;;;;;;11.57;45.41;98089.88;4363201;32;34083;-83
2023/04/13 00:35:30;;;;;;;9.70;4.87;;;;;;;11.67;45.15;98089.78;4350680;32;35067;-84
2023/04/13 00:37:59;;;;;;;9.93;5.07;;;;;;;11.66;45.05;98088.06;4338990;32;34067;-84
2023/04/13 00:40:27;;;;;;;8.35;5.05;;;;;;;11.79;44.92;98090.56;4360837;32;33776;-83
2023/04/13 00:42:55;;;;;;;7.37;4.47;;;;;;;11.87;44.85;98083.59;4347810;32;33092;-83
2023/04/13 00:45:22;;;;;;;10.23;5.20;;;;;;;11.74;45.99;98084.53;4344161;32;33645;-83
2023/04/13 00:47:52;;;;;;;8.88;4.93;;;;;;;11.77;45.48;98085.34;4354709;32;34397;-84
2023/04/13 00:50:20;;;;;;;9.00;4.93;;;;;;;11.81;45.37;98087.06;4360139;32;33328;-83
2023/04/13 00:52:48;;;;;;;10.40;5.80;;;;;;;11.76;45.35;98090.59;4362207;32;33861;-83
2023/04/13 00:55:20;;;;;;;10.77;4.47;;;;;;;11.75;44.65;98091.47;4361119;32;35088;-83
2023/04/13 00:57:51;;;;;;;8.98;4.47;;;;;;;11.80;44.56;98095.72;4364998;32;33862;-84
2023/04/13 01:00:20;;;;;;;11.52;6.22;;;;;;;11.84;45.04;98086.22;4350869;32;33535;-83
2023/04/13 01:02:49;;;;;;;9.25;5.10;;;;;;;11.86;45.38;98087.94;4361367;32;34727;-83
2023/04/13 01:05:17;;;;;;;12.60;5.32;;;;;;;11.95;45.76;98089.56;4348981;32;34069;-84
2023/04/13 01:07:59;;;;;;;9.27;4.90;;;;;;;12.01;46.32;98091.22;4348171;32;35208;-85
2023/04/13 01:10:46;;;;;;;10.88;4.97;;;;;;;12.00;46.58;98090.38;4344834;32;34445;-84
2023/04/13 01:13:43;;;;;;;11.75;5.78;;;;;;;12.25;46.39;98090.13;4343942;32;34245;-84
2023/04/13 01:16:15;;;;;;;9.65;4.78;;;;;;;12.27;46.01;98094.41;4359542;32;33417;-83
2023/04/13 01:18:44;;;;;;;8.93;5.62;;;;;;;12.03;47.02;98087.75;4360160;32;33626;-84
2023/04/13 01:21:14;;;;;;;12.18;4.80;;;;;;;11.98;46.71;98086.94;4351689;32;34323;-84
2023/04/13 01:23:48;;;;;;;9.00;4.90;;;;;;;11.90;46.66;98083.56;4359279;32;33798;-87
2023/04/13 01:26:16;;;;;;;8.80;4.70;;;;;;;11.95;46.01;98081.78;4361116;32;34257;-83
2023/04/13 01:28:45;;;;;;;9.52;5.07;;;;;;;11.89;45.91;98079.22;4360549;32;34791;-84
2023/04/13 01:31:14;;;;;;;8.15;5.28;;;;;;;11.80;45.45;98080.16;4348062;32;32502;-83
2023/04/13 01:33:42;;;;;;;12.77;5.53;;;;;;;11.91;45.04;98077.47;4359581;32;33966;-87
2023/04/13 01:36:12;;;;;;;14.35;7.37;;;;;;;12.01;43.87;98076.53;4333821;32;34947;-84
2023/04/13 01:38:40;;;;;;;12.32;5.93;;;;;;;11.90;44.03;98075.78;4360668;32;33743;-85
2023/04/13 01:41:08;;;;;;;11.75;6.93;;;;;;;11.83;44.33;98074.97;4360201;32;34291;-84
2023/04/13 01:43:36;;;;;;;12.15;6.82;;;;;;;11.81;44.42;98088.78;4360218;32;33551;-83
2023/04/13 01:46:10;;;;;;;12.63;6.95;;;;;;;11.89;44.29;98087.91;4349810;32;35168;-84
2023/04/13 01:48:51;;;;;;;11.77;6.93;;;;;;;11.81;44.62;98087.06;4358882;32;33716;-84
2023/04/13 01:51:31;;;;;;;13.15;6.55;;;;;;;11.82;44.56;98082.72;4354931;32;34250;-84
2023/04/13 01:54:11;;;;;;;10.02;6.05;;;;;;;11.88;44.44;98080.97;4355423;32;33760;-83
2023/04/13 01:56:39;;;;;;;12.13;6.70;;;;;;;11.91;44.63;98082.69;4346919;32;34152;-84
2023/04/13 01:59:08;;;;;;;11.82;7.03;;;;;;;11.89;44.80;98084.41;4360908;32;34016;-84
2023/04/13 02:01:39;;;;;;;10.10;6.57;;;;;;;11.96;44.58;98080.03;4348534;32;34353;-84
2023/04/13 02:04:08;;;;;;;10.90;6.18;;;;;;;11.81;45.72;98078.41;4363177;32;33677;-84
2023/04/13 02:06:36;;;;;;;14.85;6.45;;;;;;;11.95;45.36;98086.97;4361550;32;34167;-84
2023/04/13 02:09:07;;;;;;;11.12;6.65;;;;;;;11.98;44.68;98081.75;4356908;32;34018;-84
2023/04/13 02:11:35;;;;;;;17.70;6.97;;;;;;;11.90;45.67;98083.56;4346523;32;34324;-86
2023/04/13 02:14:03;;;;;;;13.62;6.93;;;;;;;11.86;45.37;98074.09;4356916;32;34077;-84
2023/04/13 02:16:31;;;;;;;13.18;7.50;;;;;;;11.78;44.41;98076.72;4368384;32;34971;-83
2023/04/13 02:19:00;;;;;;;10.90;6.93;;;;;;;11.79;45.43;98081.03;4349832;32;34133;-84
2023/04/13 02:21:27;;;;;;;13.23;7.05;;;;;;;11.90;44.76;98092.22;4347991;32;33258;-84
2023/04/13 02:23:56;;;;;;;11.38;7.12;;;;;;;11.89;44.71;98085.31;4360244;32;34031;-85
2023/04/13 02:26:25;;;;;;;12.10;6.82;;;;;;;11.82;44.89;98088.78;4346928;32;34566;-85
2023/04/13 02:28:53;;;;;;;13.40;6.82;;;;;;;11.97;44.95;98086.94;4361206;32;33790;-85
2023/04/13 02:31:22;;;;;;;12.77;6.85;;;;;;;12.11;45.05;98091.12;4352914;32;34062;-84
2023/04/13 02:33:50;;;;;;;12.05;6.53;;;;;;;12.05;44.98;98087.75;4357043;32;33989;-84
2023/04/13 02:36:19;;;;;;;10.10;6.40;;;;;;;11.92;44.91;98087.84;4358114;32;35098;-84
2023/04/13 02:38:49;;;;;;;10.98;6.25;;;;;;;12.13;44.93;98083.31;4333132;33;35587;-83
2023/04/13 02:41:21;;;;;;;11.98;6.28;;;;;;;12.00;45.12;98079.97;4349246;32;33456;-83
2023/04/13 02:43:51;;;;;;;11.73;6.85;;;;;;;11.95;46.15;98079.16;4355038;32;34381;-84
2023/04/13 02:46:19;;;;;;;11.50;6.10;;;;;;;11.76;46.13;98075.00;4355207;32;34655;-84
2023/04/13 02:48:47;;;;;;;10.65;5.78;;;;;;;11.86;45.33;98074.09;4361225;32;33803;-83
2023/04/13 02:51:14;;;;;;;11.77;6.10;;;;;;;11.72;45.38;98076.75;4353663;32;33708;-84
2023/04/13 02:53:42;;;;;;;12.00;5.93;;;;;;;11.81;45.07;98062.81;4354376;32;33728;-84
2023/04/13 02:56:10;;;;;;;12.45;6.07;;;;;;;11.66;44.93;98062.09;4360706;32;34296;-85
2023/04/13 02:58:38;;;;;;;13.35;6.22;;;;;;;11.66;45.02;98072.47;4360834;32;33740;-84
2023/04/13 03:01:06;;;;;;;13.05;6.00;;;;;;;11.75;45.36;98070.69;4348893;32;33143;-84
2023/04/13 03:03:34;;;;;;;14.10;6.50;;;;;;;11.73;45.40;98068.09;4364245;32;34739;-84
2023/04/13 03:06:01;;;;;;;12.45;6.90;;;;;;;11.76;45.49;98072.41;4371760;32;34248;-84
2023/04/13 03:08:32;;;;;;;12.75;5.97;;;;;;;11.60;45.94;98079.47;4367502;32;35619;-84
2023/04/13 03:11:02;;;;;;;12.27;6.12;;;;;;;11.64;45.36;98074.25;4361247;32;33680;-84
2023/04/13 03:13:30;;;;;;;9.30;5.50;;;;;;;11.82;44.49;98072.31;4360207;32;33662;-84
2023/04/13 03:15:59;;;;;;;10.07;5.93;;;;;;;11.69;44.76;98072.44;4360740;32;35058;-87
2023/04/13 03:18:27;;;;;;;10.73;6.68;;;;;;;11.69;45.12;98077.66;4354463;32;33989;-84
2023/04/13 03:20:55;;;;;;;12.73;6.28;;;;;;;11.75;45.22;98073.28;4351250;32;33546;-86
2023/04/13 03:23:23;;;;;;;12.15;6.32;;;;;;;11.74;45.10;98076.75;4360127;32;33425;-87
2023/04/13 03:25:51;;;;;;;12.35;5.50;;;;;;;11.68;45.31;98075.94;4345573;32;33846;-83
2023/04/13 03:28:20;;;;;;;13.35;5.90;;;;;;;11.66;45.43;98075.06;4364790;32;33954;-84
2023/04/13 03:30:48;;;;;;;14.13;5.62;;;;;;;11.65;45.42;98072.50;4367644;32;33690;-84
2023/04/13 03:33:15;;;;;;;10.25;5.97;;;;;;;11.72;45.64;98068.97;4346042;32;33927;-84
2023/04/13 03:35:43;;;;;;;10.75;5.68;;;;;;;11.68;45.83;98070.75;4358885;32;34515;-84
2023/04/13 03:38:12;;;;;;;12.52;5.47;;;;;;;11.78;45.50;98063.75;4346047;32;34041;-87
2023/04/13 03:40:40;;;;;;;15.65;5.75;;;;;;;11.91;44.93;98069.69;4360206;32;33698;-82
2023/04/13 03:43:09;;;;;;;11.85;5.30;;;;;;;11.75;45.31;98076.75;4359701;32;33747;-81
2023/04/13 03:45:36;;;;;;;9.13;5.22;;;;;;;11.68;45.55;98064.69;4365273;32;34025;-80
2023/04/13 03:48:07;;;;;;;10.20;5.50;;;;;;;11.70;45.77;98065.53;4333595;32;33834;-81
2023/04/13 03:50:37;;;;;;;10.48;5.72;;;;;;;11.72;45.10;98063.78;4346066;32;34138;-82
2023/04/13 03:53:05;;;;;;;11.98;5.95;;;;;;;11.60;45.67;98058.72;4355614;32;34862;-81
2023/04/13 03:55:33;;;;;;;9.98;5.75;;;;;;;11.41;46.12;98056.28;4359686;32;33964;-84
2023/04/13 03:58:02;;;;;;;10.60;6.45;;;;;;;11.51;46.09;98057.03;4339519;32;33522;-82
2023/04/13 04:00:30;;;;;;;12.07;6.55;;;;;;;11.32;46.60;98063.25;4357838;32;34147;-84
2023/04/13 04:02:58;;;;;;;12.20;6.43;;;;;;;11.44;46.20;98050.22;4353454;32;33894;-82
2023/04/13 04:05:26;;;;;;;14.75;8.52;;;;;;;11.39;46.23;98060.59;4363435;32;34198;-83
2023/04/13 04:07:54;;;;;;;21.98;12.90;;;;;;;11.52;46.13;98056.19;4330117;33;33716;-82
2023/04/13 04:10:22;;;;;;;21.75;13.73;;;;;;;11.29;46.57;98065.87;4353777;32;33355;-82
2023/04/13 04:12:50;;;;;;;23.50;13.40;;;;;;;11.16;46.49;98068.56;4359912;32;33802;-82
2023/04/13 04:15:18;;;;;;;18.05;10.90;;;;;;;11.22;46.58;98072.87;4345340;32;35189;-82
2023/04/13 04:17:46;;;;;;;16.35;9.48;;;;;;;11.21;46.33;98073.72;4353124;32;34724;-82
2023/04/13 04:20:14;;;;;;;16.00;9.93;;;;;;;11.11;46.45;98072.94;4360805;32;32701;-82
2023/04/13 04:22:43;;;;;;;13.60;8.95;;;;;;;11.19;47.07;98078.94;4338646;32;33782;-82
2023/04/13 04:25:20;;;;;;;13.55;8.40;;;;;;;11.31;46.47;98070.19;4358177;32;32956;-83
2023/04/13 04:27:49;;;;;;;12.82;8.32;;;;;;;11.22;46.65;98069.41;4349302;32;32559;-82
2023/04/13 04:30:21;;;;;;;13.95;8.02;;;;;;;11.33;46.28;98065.00;4362705;32;33104;-83
2023/04/13 04:32:53;;;;;;;11.20;7.10;;;;;;;11.31;46.02;98071.91;4375292;32;33699;-82
2023/04/13 04:35:32;;;;;;;10.90;7.07;;;;;;;11.29;45.56;98074.53;4370057;32;32961;-83
2023/04/13 04:38:03;;;;;;;9.80;6.60;;;;;;;11.26;45.70;98081.50;4346341;32;33684;-82
2023/04/13 04:40:35;;;;;;;13.27;7.20;;;;;;;11.25;45.78;98079.75;4361574;32;34060;-82
2023/04/13 04:43:03;;;;;;;10.25;6.72;;;;;;;11.31;45.60;98074.53;4360416;32;34374;-82
2023/04/13 04:45:34;;;;;;;11.60;6.60;;;;;;;11.13;45.89;98081.56;4362341;32;33728;-83
2023/04/13 04:48:04;;;;;;;11.73;6.45;;;;;;;11.29;45.54;98078.84;4366166;32;34240;-83
2023/04/13 04:50:32;;;;;;;12.30;6.82;;;;;;;11.31;45.36;98084.91;4347247;32;33753;-84
2023/04/13 04:53:00;;;;;;;11.45;6.15;;;;;;;11.30;46.01;98088.37;4366219;32;33724;-82
2023/04/13 04:55:28;;;;;;;9.25;5.93;;;;;;;11.19;47.05;98091.91;4370007;32;33866;-82
2023/04/13 04:57:56;;;;;;;11.60;6.80;;;;;;;11.22;46.36;98079.78;4360199;32;34028;-84
2023/04/13 05:00:25;;;;;;;13.00;6.07;;;;;;;11.23;46.48;98081.50;4341035;32;33674;-83
2023/04/13 05:02:56;;;;;;;10.85;6.78;;;;;;;11.53;45.81;98076.06;4359817;32;33872;-82
2023/04/13 05:05:24;;;;;;;9.45;5.85;;;;;;;11.56;45.81;98081.25;4359042;32;34957;-82
2023/04/13 05:07:52;;;;;;;11.23;5.97;;;;;;;11.56;46.36;98077.78;4372337;32;33877;-83
2023/04/13 05:10:19;;;;;;;12.45;6.72;;;;;;;11.51;46.84;98077.81;4368093;32;33276;-83
2023/04/13 05:12:49;;;;;;;11.65;7.03;;;;;;;11.53;46.73;98076.06;4373593;32;34333;-82
2023/04/13 05:15:17;;;;;;;12.50;6.57;;;;;;;11.62;46.36;98080.31;4371511;32;33887;-83
2023/04/13 05:17:45;;;;;;;10.95;6.62;;;;;;;11.69;45.73;98080.25;4359779;32;34001;-82
2023/04/13 05:20:13;;;;;;;10.77;6.05;;;;;;;11.91;46.61;98083.53;4359901;32;33250;-82
2023/04/13 05:22:42;;;;;;;11.63;5.95;;;;;;;12.04;46.80;98092.03;4360375;32;33570;-82
2023/04/13 05:25:09;;;;;;;12.57;6.10;;;;;;;11.81;46.64;98083.59;4346253;32;34192;-83
2023/04/13 05:27:37;;;;;;;13.35;6.00;;;;;;;11.85;46.61;98093.97;4372463;32;34859;-82
2023/04/13 05:30:05;;;;;;;13.43;6.03;;;;;;;11.92;45.41;98090.44;4372943;32;33476;-82
2023/04/13 05:32:33;;;;;;;11.65;6.25;;;;;;;12.00;41.36;98090.38;4374758;32;34512;-82
2023/04/13 05:35:03;;;;;;;12.63;6.20;;;;;;;11.97;41.48;98089.53;4374587;32;34330;-83
2023/04/13 05:37:30;;;;;;;12.27;5.87;;;;;;;12.03;39.61;98090.34;4374523;32;34180;-83
2023/04/13 05:39:58;;;;;;;14.95;5.87;;;;;;;12.03;39.94;98082.53;4374638;32;34363;-81
2023/04/13 05:42:26;;;;;;;11.90;6.00;;;;;;;11.90;38.79;98079.22;4337329;32;32651;-81
2023/04/13 05:44:54;;;;;;;12.75;7.62;;;;;;;12.04;40.02;98081.66;4345288;32;31952;-82
2023/04/13 05:47:22;;;;;;;10.82;4.97;;;;;;;12.04;38.90;98081.66;4359177;32;33792;-82
2023/04/13 05:49:51;;;;;;;8.95;5.37;;;;;;;11.54;38.95;98082.13;4359309;32;33628;-82
2023/04/13 05:52:20;;;;;;;10.88;5.95;;;;;;;11.32;39.42;98084.88;4374266;32;35196;-86
2023/04/13 05:54:49;;;;;;;12.63;6.60;;;;;;;11.67;38.77;98079.41;4354919;32;33876;-82
2023/04/13 05:57:19;;;;;;;13.30;7.18;;;;;;;11.91;37.83;98082.69;4348393;32;33704;-86
2023/04/13 05:59:47;;;;;;;13.48;6.25;;;;;;;11.63;38.62;98082.91;4371272;32;33273;-85
2023/04/13 06:02:19;;;;;;;11.85;6.10;;;;;;;11.71;38.66;98079.38;4374253;32;33963;-86
2023/04/13 06:04:47;;;;;;;12.80;6.35;;;;;;;11.97;38.87;98085.22;4374220;32;34683;-84
2023/04/13 06:07:16;;;;;;;16.42;6.55;;;;;;;11.73;38.60;98073.28;4376269;32;33972;-85
2023/04/13 06:09:43;;;;;;;12.73;6.30;;;;;;;11.47;38.66;98085.63;4376143;32;33534;-85
2023/04/13 06:12:12;;;;;;;11.52;6.32;;;;;;;12.08;38.32;98095.47;4376082;32;33826;-84
2023/04/13 06:14:40;;;;;;;12.37;6.45;;;;;;;12.12;38.72;98079.87;4376072;32;35031;-85
2023/04/13 06:17:08;;;;;;;11.43;6.05;;;;;;;12.53;38.37;98082.84;4362661;32;34074;-84
2023/04/13 06:19:36;;;;;;;11.35;6.25;;;;;;;12.12;38.75;98084.19;4361021;32;33888;-86
2023/04/13 06:22:04;;;;;;;12.43;6.03;;;;;;;11.94;38.75;98077.47;4376135;32;33504;-84
2023/04/13 06:24:32;;;;;;;14.18;5.47;;;;;;;12.53;37.80;98082.84;4376633;32;33930;-86
2023/04/13 06:27:00;;;;;;;14.68;6.22;;;;;;;12.12;38.72;98092.84;4362760;32;34794;-86
2023/04/13 06:29:28;;;;;;;14.05;6.57;;;;;;;12.37;38.39;98090.81;4376065;32;33360;-84
2023/04/13 06:31:56;;;;;;;12.35;5.70;;;;;;;12.52;37.68;98092.38;4376469;32;34839;-86
2023/04/13 06:34:24;;;;;;;14.27;6.37;;;;;;;12.81;37.50;98088.56;4362216;32;33388;-84
2023/04/13 06:36:52;;;;;;;12.23;6.32;;;;;;;12.50;38.36;98088.97;4362570;32;33908;-85
2023/04/13 06:39:20;;;;;;;13.18;5.78;;;;;;;12.11;38.33;98091.12;4360723;32;34235;-85
2023/04/13 06:41:52;;;;;;;14.57;5.82;;;;;;;12.32;37.63;98102.16;4374840;32;33826;-84
2023/04/13 06:44:19;;;;;;;15.32;5.55;;;;;;;12.40;37.76;98092.53;4375895;32;34851;-85
2023/04/13 06:46:47;;;;;;;12.15;5.50;;;;;;;12.73;37.03;98091.25;4361085;32;35302;-85
2023/04/13 06:49:15;;;;;;;12.30;5.82;;;;;;;12.73;37.13;98092.97;4376057;32;33568;-85
2023/04/13 06:51:42;;;;;;;11.93;5.28;;;;;;;12.59;37.45;98099.22;4375927;32;33952;-82
2023/04/13 06:54:10;;;;;;;11.52;5.50;;;;;;;13.03;36.52;98105.59;4362475;32;34226;-82
2023/04/13 06:56:40;;;;;;;12.57;5.87;;;;;;;12.56;37.77;98114.88;4362588;32;33711;-83
2023/04/13 06:59:07;;;;;;;14.75;6.80;;;;;;;13.05;36.68;98101.22;4360646;32;33499;-82
2023/04/13 07:01:35;;;;;;;17.08;5.68;;;;;;;13.07;36.81;98102.06;4375668;32;33998;-82
2023/04/13 07:04:05;;;;;;;12.60;6.18;;;;;;;12.87;37.31;98104.91;4360909;32;33787;-82
2023/04/13 07:06:33;;;;;;;14.20;5.90;;;;;;;13.23;37.13;98094.91;4376279;32;33626;-82
2023/04/13 07:09:01;;;;;;;17.52;6.10;;;;;;;13.37;36.99;98099.91;4374345;32;33701;-82
2023/04/13 07:11:30;;;;;;;13.27;6.40;;;;;;;13.19;37.51;98105.38;4375681;32;34869;-82
2023/04/13 07:13:57;;;;;;;15.15;6.50;;;;;;;12.84;38.38;98114.50;4376007;32;34938;-82
2023/04/13 07:16:25;;;;;;;12.98;6.25;;;;;;;12.72;38.50;98119.88;4361439;32;32470;-82
2023/04/13 07:18:52;;;;;;;21.30;6.90;;;;;;;13.11;38.17;98115.91;4375447;32;33304;-82
2023/04/13 07:21:20;;;;;;;15.00;6.95;;;;;;;13.24;38.15;98119.22;4375625;32;33998;-82
2023/04/13 07:23:49;;;;;;;11.05;6.80;;;;;;;13.45;38.63;98107.59;4375742;32;34990;-82
2023/04/13 07:26:17;;;;;;;11.85;6.22;;;;;;;13.08;38.61;98121.13;4362111;32;33791;-82
2023/04/13 07:28:44;;;;;;;13.82;6.53;;;;;;;13.19;37.88;98126.19;4370616;32;33606;-82
2023/04/13 07:31:12;;;;;;;12.65;6.30;;;;;;;13.43;38.76;98117.19;4360500;32;33951;-82
2023/04/13 07:33:40;;;;;;;12.80;7.20;;;;;;;13.16;38.76;98129.69;4360904;32;34974;-82
2023/04/13 07:36:08;;;;;;;12.43;6.85;;;;;;;13.16;39.01;98121.88;4347223;32;33945;-82
2023/04/13 07:38:37;;;;;;;13.68;6.78;;;;;;;13.21;38.84;98108.81;4360728;32;34457;-82
2023/04/13 07:41:06;;;;;;;14.48;7.25;;;;;;;13.51;38.17;98121.38;4360466;32;34576;-82
2023/04/13 07:43:34;;;;;;;12.95;6.80;;;;;;;13.58;37.90;98115.19;4360833;32;34299;-82
2023/04/13 07:46:10;;;;;;;16.42;8.55;;;;;;;13.49;38.43;98120.56;4347565;32;33724;-82
2023/04/13 07:48:39;;;;;;;;;;;;;;;13.50;39.05;98129.22;4347998;32;33604;-82
2023/04/13 07:51:18;;;;;;;12.45;6.20;;;;;;;13.71;38.65;98122.78;4347765;32;34310;-82
2023/04/13 07:53:46;;;;;;;9.95;6.15;;;;;;;13.63;38.36;98122.91;4351229;32;33951;-82
2023/04/13 07:56:14;;;;;;;12.60;6.10;;;;;;;13.72;39.46;98130.59;4375747;32;33306;-82
2023/04/13 07:58:45;;;;;;;20.23;6.37;;;;;;;13.94;37.94;98109.38;4375539;32;33444;-82
2023/04/13 08:01:13;;;;;;;53.58;19.65;;;;;;;13.73;38.14;98126.25;4361901;32;33129;-82
2023/04/13 08:03:43;;;;;;;15.07;5.87;;;;;;;14.04;38.95;98124.81;4375246;32;34592;-82
2023/04/13 08:06:11;;;;;;;14.05;6.05;;;;;;;13.58;38.11;98124.75;4362232;32;34142;-82
2023/04/13 08:08:41;;;;;;;12.65;5.93;;;;;;;13.54;37.55;98126.53;4375369;32;33600;-82
2023/04/13 08:11:09;;;;;;;13.05;5.75;;;;;;;13.83;37.51;98114.81;4375362;32;34152;-82
2023/04/13 08:13:36;;;;;;;12.73;6.22;;;;;;;13.98;37.66;98111.94;4375434;32;34568;-82
2023/04/13 08:16:05;;;;;;;14.02;6.30;;;;;;;13.82;38.01;98118.28;4375641;32;34708;-82
2023/04/13 08:18:33;;;;;;;12.05;6.12;;;;;;;13.82;38.82;98115.66;4373883;32;33576;-83
2023/04/13 08:21:09;;;;;;;13.18;6.20;;;;;;;14.16;37.56;98117.66;4375391;32;34555;-82
2023/04/13 08:23:41;;;;;;;;;;;;;;;14.09;37.74;98112.59;4362499;32;35003;-82
2023/04/13 08:26:17;;;;;;;14.68;6.12;;;;;;;14.34;37.57;98112.13;4361877;32;34212;-82
2023/04/13 08:28:48;;;;;;;11.35;5.57;;;;;;;14.54;38.13;98119.56;4361454;32;33663;-82
2023/04/13 08:31:16;;;;;;;14.10;5.30;;;;;;;14.32;37.08;98121.75;4375098;32;34768;-82
2023/04/13 08:33:46;;;;;;;11.57;4.95;;;;;;;14.23;37.18;98124.50;4375479;32;33748;-82
2023/04/13 08:36:16;;;;;;;15.27;5.00;;;;;;;14.25;36.70;98123.59;4375453;32;33830;-82
2023/04/13 08:38:44;;;;;;;13.48;5.12;;;;;;;14.45;37.11;98109.31;4375333;32;33462;-82
2023/04/13 08:41:13;;;;;;;11.12;5.20;;;;;;;14.85;36.56;98119.84;4361703;32;33925;-82
2023/04/13 08:43:41;;;;;;;11.63;5.57;;;;;;;14.90;36.08;98112.75;4373692;32;34064;-82
2023/04/13 08:46:10;;;;;;;12.90;5.53;;;;;;;14.99;34.93;98112.53;4355434;32;33643;-82
2023/04/13 08:48:41;;;;;;;13.45;6.35;;;;;;;14.75;36.34;98110.47;4360226;32;33159;-82
2023/04/13 08:51:21;;;;;;;12.43;5.35;;;;;;;14.50;36.58;98108.34;4348637;32;33846;-82
2023/04/13 08:53:52;;;;;;;11.80;6.03;;;;;;;14.53;36.57;98103.06;4346786;32;35059;-82
2023/04/13 08:56:22;;;;;;;10.93;5.75;;;;;;;14.48;37.05;98110.09;4346896;32;34051;-82
2023/04/13 08:59:06;;;;;;;10.60;6.03;;;;;;;14.96;36.69;98107.38;4347997;32;34390;-82
2023/04/13 09:01:36;;;;;;;13.55;6.43;;;;;;;14.87;36.31;98106.75;4359748;32;33954;-82
2023/04/13 09:04:08;;;;;;;11.55;5.55;;;;;;;15.07;36.29;98105.41;4360173;32;35043;-82
2023/04/13 09:06:38;;;;;;;10.52;5.57;;;;;;;15.31;35.77;98098.78;4360328;32;34508;-81
2023/04/13 09:09:13;;;;;;;10.23;5.60;;;;;;;15.14;35.56;98107.88;4334223;32;32793;-82
2023/04/13 09:11:41;;;;;;;9.95;4.80;;;;;;;15.37;34.62;98102.13;4346663;32;34651;-82
2023/04/13 09:14:09;;;;;;;11.48;4.37;;;;;;;15.42;34.01;98097.66;4372211;32;35035;-82
2023/04/13 09:16:43;;;;;;;12.52;5.10;;;;;;;15.75;34.10;98094.25;4374717;32;34016;-82
2023/04/13 09:19:12;;;;;;;11.48;5.85;;;;;;;15.61;34.79;98093.72;4361481;32;34113;-82
2023/04/13 09:21:42;;;;;;;11.30;5.15;;;;;;;15.38;34.81;98093.38;4360449;32;34234;-82
2023/04/13 09:24:09;;;;;;;13.52;4.93;;;;;;;15.63;35.99;98099.75;4361116;32;35266;-82
2023/04/13 09:26:42;;;;;;;14.43;4.97;;;;;;;15.10;34.01;98104.47;4374598;32;33541;-82
2023/04/13 09:29:12;;;;;;;14.40;5.45;;;;;;;15.40;34.23;98105.53;4374154;32;34039;-83
2023/04/13 09:31:40;;;;;;;16.83;5.85;;;;;;;15.58;34.27;98101.63;4361004;32;33745;-82
2023/04/13 09:34:12;;;;;;;12.40;5.62;;;;;;;15.67;34.43;98095.34;4374343;32;34646;-82
2023/04/13 09:36:40;;;;;;;11.30;5.22;;;;;;;15.68;35.54;98102.28;4374303;32;34642;-82
2023/04/13 09:39:26;;;;;;;14.40;5.35;;;;;;;15.51;34.04;98098.28;4374538;32;34382;-82
2023/04/13 09:41:54;;;;;;;12.95;5.43;;;;;;;15.78;33.72;98094.16;4376278;32;34774;-83
2023/04/13 09:44:23;;;;;;;11.55;5.30;;;;;;;15.82;34.28;98095.81;4375078;32;35292;-81
2023/04/13 09:47:06;;;;;;;9.48;5.15;;;;;;;15.52;35.22;98102.63;4376692;32;34075;-83
2023/04/13 09:49:38;;;;;;;13.23;5.30;;;;;;;15.61;35.05;98105.91;4376102;32;33798;-81
2023/04/13 09:52:17;;;;;;;11.23;5.00;;;;;;;15.89;35.03;98099.12;4347825;32;34432;-82
2023/04/13 09:54:51;;;;;;;10.90;5.25;;;;;;;16.34;34.26;98098.81;4347979;32;34160;-82
2023/04/13 09:57:29;;;;;;;13.95;5.22;;;;;;;15.79;34.95;98089.78;4361228;32;35145;-82
2023/04/13 09:59:59;;;;;;;9.07;4.70;;;;;;;16.54;35.15;98091.25;4361278;32;33671;-82
2023/04/13 10:02:39;;;;;;;15.68;5.07;;;;;;;16.56;32.84;98087.75;4361062;32;33996;-82
2023/04/13 10:05:11;;;;;;;14.48;5.15;;;;;;;16.74;33.27;98095.09;4348038;32;34108;-82
2023/04/13 10:07:42;;;;;;;10.18;4.68;;;;;;;16.72;33.92;98094.25;4361223;32;34587;-81
2023/04/13 10:10:11;;;;;;;10.80;4.18;;;;;;;16.39;33.93;98088.22;4361051;32;33587;-82
2023/04/13 10:12:44;;;;;;;10.30;4.10;;;;;;;16.05;32.94;98097.81;4347853;32;34741;-82
2023/04/13 10:15:17;;;;;;;10.77;4.80;;;;;;;16.11;32.68;98099.44;4348159;32;33744;-82
2023/04/13 10:17:52;;;;;;;11.70;4.20;;;;;;;16.13;33.16;98105.47;4361588;32;34098;-82
2023/04/13 10:20:20;;;;;;;15.63;4.78;;;;;;;16.27;33.47;98102.50;4361925;32;33635;-82
2023/04/13 10:22:48;;;;;;;10.43;5.35;;;;;;;16.72;33.02;98104.72;4347590;32;33870;-82
2023/04/13 10:25:17;;;;;;;8.30;3.70;;;;;;;17.08;32.15;98107.16;4348000;32;34224;-83
2023/04/13 10:27:59;;;;;;;7.72;4.05;;;;;;;16.93;32.67;98101.50;4349386;32;33726;-83
2023/04/13 10:30:27;;;;;;;8.80;4.30;;;;;;;16.78;33.02;98097.59;4347760;32;34276;-82
2023/04/13 10:33:07;;;;;;;10.70;4.45;;;;;;;17.20;32.86;98088.47;4347799;32;33965;-83
2023/04/13 10:35:39;;;;;;;15.13;5.22;;;;;;;16.54;33.31;98095.63;4347563;32;34312;-82
2023/04/13 10:38:10;;;;;;;12.15;4.95;;;;;;;16.78;33.48;98102.81;4361113;32;34713;-82
2023/04/13 10:40:44;;;;;;;11.82;5.32;;;;;;;16.68;33.38;98097.88;4360746;32;34628;-82
2023/04/13 10:43:12;;;;;;;11.90;5.35;;;;;;;16.93;33.80;98098.00;4361262;32;33573;-82
2023/04/13 10:45:40;;;;;;;10.43;5.60;;;;;;;17.03;33.92;98100.31;4361085;32;35019;-82
2023/04/13 10:48:20;;;;;;;11.43;4.75;;;;;;;16.94;32.88;98098.00;4361581;32;33717;-82
2023/04/13 10:50:59;;;;;;;11.43;4.80;;;;;;;16.94;34.31;98095.37;4347338;32;33523;-84
2023/04/13 10:53:29;;;;;;;12.75;5.53;;;;;;;16.83;33.41;98086.13;4347502;32;33956;-83
2023/04/13 10:55:57;;;;;;;10.90;5.65;;;;;;;16.59;34.02;98087.63;4361126;32;35071;-83
2023/04/13 10:58:26;;;;;;;12.20;5.78;;;;;;;16.70;34.15;98089.03;4360765;32;33531;-86
2023/04/13 11:00:57;;;;;;;11.25;5.35;;;;;;;17.17;34.05;98080.72;4361033;32;33589;-85
2023/04/13 11:03:28;;;;;;;10.82;5.72;;;;;;;16.91;35.43;98079.75;4334766;32;34029;-84
2023/04/13 11:05:57;;;;;;;13.57;5.80;;;;;;;16.96;35.01;98069.12;4360968;32;33813;-85
2023/04/13 11:08:26;;;;;;;13.20;6.22;;;;;;;16.83;35.15;98075.66;4348120;32;33870;-85
2023/04/13 11:10:55;;;;;;;14.13;6.18;;;;;;;16.62;35.96;98079.72;4361007;32;33371;-85
2023/04/13 11:13:27;;;;;;;12.18;5.18;;;;;;;17.07;35.61;98079.28;4361163;32;33884;-82
2023/04/13 11:16:01;;;;;;;13.07;6.20;;;;;;;17.48;34.12;98073.59;4347436;32;33870;-84
2023/04/13 11:18:28;;;;;;;12.40;5.62;;;;;;;17.57;33.61;98064.56;4361198;32;33952;-82
2023/04/13 11:20:56;;;;;;;14.80;6.57;;;;;;;16.75;34.50;98073.25;4360984;32;33154;-82
2023/04/13 11:23:24;;;;;;;10.05;5.45;;;;;;;17.46;33.86;98059.69;4360721;32;33862;-83
2023/04/13 11:25:53;;;;;;;10.82;5.03;;;;;;;17.19;34.54;98058.78;4347122;32;33681;-84
2023/04/13 11:28:22;;;;;;;7.40;3.90;;;;;;;17.28;33.05;98052.44;4351128;32;34166;-82
2023/04/13 11:30:54;;;;;;;12.07;5.82;;;;;;;16.82;33.39;98059.09;4375695;32;33664;-82
2023/04/13 11:33:28;;;;;;;9.75;4.68;;;;;;;16.98;33.93;98059.47;4361924;32;33788;-81
2023/04/13 11:35:57;;;;;;;10.93;4.80;;;;;;;17.66;32.08;98047.69;4375659;32;34922;-87
2023/04/13 11:38:27;;;;;;;9.90;4.68;;;;;;;17.77;32.65;98050.84;4361927;32;34007;-83